sensor_id;sensor_type;location;lat;lon;timestamp;P1;durP1;ratioP1;P2;durP2;ratioP2
23519;SDS011;11936;50.820;4.336;2023-06-26T00:02:11;8.77;;;5.40;;
23519;SDS011;11936;50.820;4.336;2023-06-26T00:04:37;8.43;;;4.90;;
23519;SDS011;11936;50.820;4.336;2023-06-26T00:07:03;7.90;;;5.22;;
23519;SDS011;11936;50.820;4.336;2023-06-26T00:09:29;5.03;;;4.53;;
23519;SDS011;11936;50.820;4.336;2023-06-26T00:11:55;6.03;;;4.90;;
23519;SDS011;11936;50.820;4.336;2023-06-26T00:14:20;5.25;;;4.68;;
23519;SDS011;11936;50.820;4.336;2023-06-26T00:16:46;5.35;;;4.07;;
23519;SDS011;11936;50.820;4.336;2023-06-26T00:19:14;7.75;;;4.20;;
23519;SDS011;11936;50.820;4.336;2023-06-26T00:21:40;6.75;;;4.00;;
23519;SDS011;11936;50.820;4.336;2023-06-26T00:24:06;6.22;;;4.07;;
23519;SDS011;11936;50.820;4.336;2023-06-26T00:26:31;5.95;;;3.65;;
23519;SDS011;11936;50.820;4.336;2023-06-26T00:28:57;6.53;;;4.00;;
23519;SDS011;11936;50.820;4.336;2023-06-26T00:31:22;5.82;;;3.78;;
23519;SDS011;11936;50.820;4.336;2023-06-26T00:33:48;7.53;;;4.00;;
23519;SDS011;11936;50.820;4.336;2023-06-26T00:36:13;6.75;;;4.07;;
23519;SDS011;11936;50.820;4.336;2023-06-26T00:38:39;9.90;;;3.90;;
23519;SDS011;11936;50.820;4.336;2023-06-26T00:41:05;4.13;;;3.72;;
23519;SDS011;11936;50.820;4.336;2023-06-26T00:43:37;7.88;;;4.07;;
23519;SDS011;11936;50.820;4.336;2023-06-26T00:46:02;6.65;;;4.22;;
23519;SDS011;11936;50.820;4.336;2023-06-26T00:48:28;5.05;;;3.95;;
23519;SDS011;11936;50.820;4.336;2023-06-26T00:50:54;5.97;;;4.13;;
23519;SDS011;11936;50.820;4.336;2023-06-26T00:53:20;6.18;;;3.55;;
23519;SDS011;11936;50.820;4.336;2023-06-26T00:55:46;8.93;;;4.20;;
23519;SDS011;11936;50.820;4.336;2023-06-26T00:58:12;6.50;;;3.75;;
23519;SDS011;11936;50.820;4.336;2023-06-26T01:00:38;7.53;;;3.90;;
23519;SDS011;11936;50.820;4.336;2023-06-26T01:03:04;4.80;;;3.45;;
23519;SDS011;11936;50.820;4.336;2023-06-26T01:05:32;5.00;;;4.10;;
23519;SDS011;11936;50.820;4.336;2023-06-26T01:07:57;5.82;;;3.70;;
23519;SDS011;11936;50.820;4.336;2023-06-26T01:10:24;8.55;;;3.83;;
23519;SDS011;11936;50.820;4.336;2023-06-26T01:12:52;8.15;;;3.70;;
23519;SDS011;11936;50.820;4.336;2023-06-26T01:15:18;8.45;;;3.53;;
23519;SDS011;11936;50.820;4.336;2023-06-26T01:17:44;7.72;;;4.07;;
23519;SDS011;11936;50.820;4.336;2023-06-26T01:20:12;5.93;;;3.38;;
23519;SDS011;11936;50.820;4.336;2023-06-26T01:22:48;4.28;;;3.45;;
23519;SDS011;11936;50.820;4.336;2023-06-26T01:25:23;6.00;;;3.35;;
23519;SDS011;11936;50.820;4.336;2023-06-26T01:28:06;5.97;;;3.83;;
23519;SDS011;11936;50.820;4.336;2023-06-26T01:30:34;8.18;;;3.65;;
23519;SDS011;11936;50.820;4.336;2023-06-26T01:33:03;5.25;;;3.35;;
23519;SDS011;11936;50.820;4.336;2023-06-26T01:35:29;5.68;;;3.78;;
23519;SDS011;11936;50.820;4.336;2023-06-26T01:40:57;7.78;;;3.05;;
23519;SDS011;11936;50.820;4.336;2023-06-26T01:46:27;4.70;;;3.55;;
23519;SDS011;11936;50.820;4.336;2023-06-26T01:49:03;3.92;;;3.30;;
23519;SDS011;11936;50.820;4.336;2023-06-26T01:51:41;5.93;;;3.88;;
23519;SDS011;11936;50.820;4.336;2023-06-26T01:54:13;7.40;;;3.50;;
23519;SDS011;11936;50.820;4.336;2023-06-26T01:56:41;6.50;;;3.97;;
23519;SDS011;11936;50.820;4.336;2023-06-26T01:59:09;7.15;;;3.83;;
23519;SDS011;11936;50.820;4.336;2023-06-26T02:01:36;6.75;;;3.60;;
23519;SDS011;11936;50.820;4.336;2023-06-26T02:04:02;8.23;;;3.83;;
23519;SDS011;11936;50.820;4.336;2023-06-26T02:06:27;9.95;;;3.78;;
23519;SDS011;11936;50.820;4.336;2023-06-26T02:08:53;7.03;;;3.63;;
23519;SDS011;11936;50.820;4.336;2023-06-26T02:11:21;8.00;;;4.13;;
23519;SDS011;11936;50.820;4.336;2023-06-26T02:13:47;5.05;;;3.50;;
23519;SDS011;11936;50.820;4.336;2023-06-26T02:16:13;7.32;;;3.88;;
23519;SDS011;11936;50.820;4.336;2023-06-26T02:18:38;8.05;;;3.70;;
23519;SDS011;11936;50.820;4.336;2023-06-26T02:21:04;5.95;;;3.13;;
23519;SDS011;11936;50.820;4.336;2023-06-26T02:23:30;9.02;;;3.47;;
23519;SDS011;11936;50.820;4.336;2023-06-26T02:25:56;8.13;;;3.88;;
23519;SDS011;11936;50.820;4.336;2023-06-26T02:28:22;9.43;;;3.90;;
23519;SDS011;11936;50.820;4.336;2023-06-26T02:30:47;9.13;;;4.28;;
23519;SDS011;11936;50.820;4.336;2023-06-26T02:33:13;6.18;;;3.55;;
23519;SDS011;11936;50.820;4.336;2023-06-26T02:35:38;7.10;;;3.90;;
23519;SDS011;11936;50.820;4.336;2023-06-26T02:38:04;5.93;;;3.65;;
23519;SDS011;11936;50.820;4.336;2023-06-26T02:40:29;8.55;;;4.38;;
23519;SDS011;11936;50.820;4.336;2023-06-26T02:42:55;8.45;;;3.83;;
23519;SDS011;11936;50.820;4.336;2023-06-26T02:45:20;8.77;;;3.90;;
23519;SDS011;11936;50.820;4.336;2023-06-26T02:47:46;5.88;;;3.30;;
23519;SDS011;11936;50.820;4.336;2023-06-26T02:50:12;6.65;;;4.22;;
23519;SDS011;11936;50.820;4.336;2023-06-26T02:52:37;7.85;;;3.78;;
23519;SDS011;11936;50.820;4.336;2023-06-26T02:55:03;7.93;;;4.15;;
23519;SDS011;11936;50.820;4.336;2023-06-26T02:57:30;8.13;;;3.95;;
23519;SDS011;11936;50.820;4.336;2023-06-26T02:59:56;10.45;;;5.32;;
23519;SDS011;11936;50.820;4.336;2023-06-26T03:02:21;12.93;;;5.60;;
23519;SDS011;11936;50.820;4.336;2023-06-26T03:04:47;12.60;;;4.43;;
23519;SDS011;11936;50.820;4.336;2023-06-26T03:07:12;8.23;;;4.28;;
23519;SDS011;11936;50.820;4.336;2023-06-26T03:09:38;9.50;;;4.32;;
23519;SDS011;11936;50.820;4.336;2023-06-26T03:12:03;10.65;;;4.82;;
23519;SDS011;11936;50.820;4.336;2023-06-26T03:14:29;11.10;;;4.32;;
23519;SDS011;11936;50.820;4.336;2023-06-26T03:16:56;10.13;;;5.07;;
23519;SDS011;11936;50.820;4.336;2023-06-26T03:19:24;11.88;;;5.03;;
23519;SDS011;11936;50.820;4.336;2023-06-26T03:21:49;12.48;;;4.90;;
23519;SDS011;11936;50.820;4.336;2023-06-26T03:24:15;7.57;;;4.45;;
23519;SDS011;11936;50.820;4.336;2023-06-26T03:26:40;9.25;;;4.60;;
23519;SDS011;11936;50.820;4.336;2023-06-26T03:29:06;15.70;;;4.95;;
23519;SDS011;11936;50.820;4.336;2023-06-26T03:31:32;13.07;;;4.85;;
23519;SDS011;11936;50.820;4.336;2023-06-26T03:33:57;15.30;;;5.32;;
23519;SDS011;11936;50.820;4.336;2023-06-26T03:36:23;11.80;;;4.75;;
23519;SDS011;11936;50.820;4.336;2023-06-26T03:38:48;19.27;;;5.38;;
23519;SDS011;11936;50.820;4.336;2023-06-26T03:41:14;17.77;;;5.18;;
23519;SDS011;11936;50.820;4.336;2023-06-26T03:43:39;9.48;;;4.55;;
23519;SDS011;11936;50.820;4.336;2023-06-26T03:46:05;15.82;;;5.47;;
23519;SDS011;11936;50.820;4.336;2023-06-26T03:48:31;16.20;;;5.75;;
23519;SDS011;11936;50.820;4.336;2023-06-26T03:50:56;14.93;;;5.32;;
23519;SDS011;11936;50.820;4.336;2023-06-26T03:53:22;15.27;;;5.50;;
23519;SDS011;11936;50.820;4.336;2023-06-26T03:55:48;11.77;;;4.70;;
23519;SDS011;11936;50.820;4.336;2023-06-26T03:58:14;14.45;;;5.40;;
23519;SDS011;11936;50.820;4.336;2023-06-26T04:00:39;16.70;;;5.50;;
23519;SDS011;11936;50.820;4.336;2023-06-26T04:03:05;16.30;;;5.53;;
23519;SDS011;11936;50.820;4.336;2023-06-26T04:05:31;15.98;;;5.18;;
23519;SDS011;11936;50.820;4.336;2023-06-26T04:07:56;14.52;;;5.07;;
23519;SDS011;11936;50.820;4.336;2023-06-26T04:10:22;14.93;;;5.05;;
23519;SDS011;11936;50.820;4.336;2023-06-26T04:12:48;17.30;;;5.50;;
23519;SDS011;11936;50.820;4.336;2023-06-26T04:15:13;14.00;;;4.53;;
23519;SDS011;11936;50.820;4.336;2023-06-26T04:17:39;12.98;;;5.60;;
23519;SDS011;11936;50.820;4.336;2023-06-26T04:20:05;14.25;;;5.45;;
23519;SDS011;11936;50.820;4.336;2023-06-26T04:22:34;13.02;;;5.05;;
23519;SDS011;11936;50.820;4.336;2023-06-26T04:25:03;14.55;;;5.70;;
23519;SDS011;11936;50.820;4.336;2023-06-26T04:27:29;16.75;;;4.68;;
23519;SDS011;11936;50.820;4.336;2023-06-26T04:29:55;12.00;;;4.10;;
23519;SDS011;11936;50.820;4.336;2023-06-26T04:32:20;12.85;;;4.82;;
23519;SDS011;11936;50.820;4.336;2023-06-26T04:34:46;13.40;;;5.38;;
23519;SDS011;11936;50.820;4.336;2023-06-26T04:37:12;16.17;;;5.10;;
23519;SDS011;11936;50.820;4.336;2023-06-26T04:39:41;19.02;;;5.25;;
23519;SDS011;11936;50.820;4.336;2023-06-26T04:42:06;15.40;;;4.82;;
23519;SDS011;11936;50.820;4.336;2023-06-26T04:44:32;13.07;;;5.22;;
23519;SDS011;11936;50.820;4.336;2023-06-26T04:46:58;16.50;;;4.57;;
23519;SDS011;11936;50.820;4.336;2023-06-26T04:49:24;12.18;;;4.75;;
23519;SDS011;11936;50.820;4.336;2023-06-26T04:51:49;9.65;;;4.55;;
23519;SDS011;11936;50.820;4.336;2023-06-26T04:54:16;17.83;;;4.95;;
23519;SDS011;11936;50.820;4.336;2023-06-26T04:56:41;17.30;;;4.78;;
23519;SDS011;11936;50.820;4.336;2023-06-26T04:59:11;16.83;;;4.90;;
23519;SDS011;11936;50.820;4.336;2023-06-26T05:01:38;20.92;;;5.82;;
23519;SDS011;11936;50.820;4.336;2023-06-26T05:04:04;15.90;;;4.72;;
23519;SDS011;11936;50.820;4.336;2023-06-26T05:06:30;11.80;;;4.40;;
23519;SDS011;11936;50.820;4.336;2023-06-26T05:08:56;13.02;;;4.63;;
23519;SDS011;11936;50.820;4.336;2023-06-26T05:11:21;13.10;;;4.90;;
23519;SDS011;11936;50.820;4.336;2023-06-26T05:13:47;21.83;;;5.45;;
23519;SDS011;11936;50.820;4.336;2023-06-26T05:16:14;13.73;;;4.20;;
23519;SDS011;11936;50.820;4.336;2023-06-26T05:18:39;18.77;;;4.82;;
23519;SDS011;11936;50.820;4.336;2023-06-26T05:21:05;14.00;;;4.47;;
23519;SDS011;11936;50.820;4.336;2023-06-26T05:23:32;15.98;;;4.47;;
23519;SDS011;11936;50.820;4.336;2023-06-26T05:25:58;15.45;;;4.65;;
23519;SDS011;11936;50.820;4.336;2023-06-26T05:28:28;15.48;;;4.30;;
23519;SDS011;11936;50.820;4.336;2023-06-26T05:30:56;15.30;;;4.43;;
23519;SDS011;11936;50.820;4.336;2023-06-26T05:33:26;10.63;;;3.67;;
23519;SDS011;11936;50.820;4.336;2023-06-26T05:35:52;16.10;;;4.40;;
23519;SDS011;11936;50.820;4.336;2023-06-26T05:38:18;10.70;;;3.33;;
23519;SDS011;11936;50.820;4.336;2023-06-26T05:40:44;17.00;;;4.40;;
23519;SDS011;11936;50.820;4.336;2023-06-26T05:43:10;14.38;;;4.30;;
23519;SDS011;11936;50.820;4.336;2023-06-26T05:45:36;18.83;;;4.05;;
23519;SDS011;11936;50.820;4.336;2023-06-26T05:48:02;13.05;;;3.95;;
23519;SDS011;11936;50.820;4.336;2023-06-26T05:50:28;8.38;;;3.25;;
23519;SDS011;11936;50.820;4.336;2023-06-26T05:52:53;11.95;;;3.50;;
23519;SDS011;11936;50.820;4.336;2023-06-26T05:55:19;14.35;;;3.25;;
23519;SDS011;11936;50.820;4.336;2023-06-26T05:57:46;11.10;;;3.60;;
23519;SDS011;11936;50.820;4.336;2023-06-26T06:00:12;10.98;;;3.65;;
23519;SDS011;11936;50.820;4.336;2023-06-26T06:02:38;14.50;;;3.47;;
23519;SDS011;11936;50.820;4.336;2023-06-26T06:05:05;16.17;;;4.07;;
23519;SDS011;11936;50.820;4.336;2023-06-26T06:07:32;13.80;;;3.22;;
23519;SDS011;11936;50.820;4.336;2023-06-26T06:09:58;11.20;;;2.92;;
23519;SDS011;11936;50.820;4.336;2023-06-26T06:12:24;9.13;;;3.45;;
23519;SDS011;11936;50.820;4.336;2023-06-26T06:14:50;13.00;;;2.95;;
23519;SDS011;11936;50.820;4.336;2023-06-26T06:17:16;8.75;;;2.92;;
23519;SDS011;11936;50.820;4.336;2023-06-26T06:19:41;15.18;;;3.17;;
23519;SDS011;11936;50.820;4.336;2023-06-26T06:22:07;9.23;;;2.92;;
23519;SDS011;11936;50.820;4.336;2023-06-26T06:24:33;10.13;;;2.70;;
23519;SDS011;11936;50.820;4.336;2023-06-26T06:26:58;8.55;;;2.97;;
23519;SDS011;11936;50.820;4.336;2023-06-26T06:29:24;7.90;;;2.85;;
23519;SDS011;11936;50.820;4.336;2023-06-26T06:31:49;16.02;;;3.42;;
23519;SDS011;11936;50.820;4.336;2023-06-26T06:34:16;10.07;;;2.92;;
23519;SDS011;11936;50.820;4.336;2023-06-26T06:36:42;8.95;;;2.53;;
23519;SDS011;11936;50.820;4.336;2023-06-26T06:39:07;15.52;;;3.10;;
23519;SDS011;11936;50.820;4.336;2023-06-26T06:41:33;9.57;;;3.03;;
23519;SDS011;11936;50.820;4.336;2023-06-26T06:43:59;10.43;;;2.63;;
23519;SDS011;11936;50.820;4.336;2023-06-26T06:46:24;6.50;;;2.70;;
23519;SDS011;11936;50.820;4.336;2023-06-26T06:48:52;8.68;;;2.70;;
23519;SDS011;11936;50.820;4.336;2023-06-26T06:51:17;6.80;;;2.60;;
23519;SDS011;11936;50.820;4.336;2023-06-26T06:53:43;13.13;;;3.03;;
23519;SDS011;11936;50.820;4.336;2023-06-26T06:56:09;7.97;;;2.63;;
23519;SDS011;11936;50.820;4.336;2023-06-26T06:58:34;6.63;;;2.65;;
23519;SDS011;11936;50.820;4.336;2023-06-26T07:01:01;11.25;;;2.60;;
23519;SDS011;11936;50.820;4.336;2023-06-26T07:03:29;9.40;;;2.28;;
23519;SDS011;11936;50.820;4.336;2023-06-26T07:05:55;8.32;;;2.28;;
23519;SDS011;11936;50.820;4.336;2023-06-26T07:08:21;9.13;;;2.47;;
23519;SDS011;11936;50.820;4.336;2023-06-26T07:10:46;7.72;;;2.22;;
23519;SDS011;11936;50.820;4.336;2023-06-26T07:13:12;11.50;;;2.17;;
23519;SDS011;11936;50.820;4.336;2023-06-26T07:15:37;5.15;;;2.00;;
23519;SDS011;11936;50.820;4.336;2023-06-26T07:18:03;6.05;;;2.35;;
23519;SDS011;11936;50.820;4.336;2023-06-26T07:20:29;11.13;;;1.77;;
23519;SDS011;11936;50.820;4.336;2023-06-26T07:22:54;9.80;;;2.72;;
23519;SDS011;11936;50.820;4.336;2023-06-26T07:25:20;6.50;;;2.20;;
23519;SDS011;11936;50.820;4.336;2023-06-26T07:27:45;7.40;;;2.50;;
23519;SDS011;11936;50.820;4.336;2023-06-26T07:30:11;8.10;;;2.65;;
23519;SDS011;11936;50.820;4.336;2023-06-26T07:32:38;5.85;;;2.22;;
23519;SDS011;11936;50.820;4.336;2023-06-26T07:35:05;8.88;;;2.47;;
23519;SDS011;11936;50.820;4.336;2023-06-26T07:37:30;4.78;;;2.38;;
23519;SDS011;11936;50.820;4.336;2023-06-26T07:39:56;10.50;;;2.30;;
23519;SDS011;11936;50.820;4.336;2023-06-26T07:42:22;12.50;;;3.13;;
23519;SDS011;11936;50.820;4.336;2023-06-26T07:44:47;8.85;;;2.30;;
23519;SDS011;11936;50.820;4.336;2023-06-26T07:47:13;6.35;;;2.13;;
23519;SDS011;11936;50.820;4.336;2023-06-26T07:49:39;10.10;;;2.90;;
23519;SDS011;11936;50.820;4.336;2023-06-26T07:52:05;10.63;;;2.40;;
23519;SDS011;11936;50.820;4.336;2023-06-26T07:54:31;5.70;;;2.35;;
23519;SDS011;11936;50.820;4.336;2023-06-26T07:56:58;5.70;;;1.92;;
23519;SDS011;11936;50.820;4.336;2023-06-26T07:59:25;6.68;;;2.05;;
23519;SDS011;11936;50.820;4.336;2023-06-26T08:01:53;9.82;;;2.78;;
23519;SDS011;11936;50.820;4.336;2023-06-26T08:04:19;8.88;;;2.15;;
23519;SDS011;11936;50.820;4.336;2023-06-26T08:06:47;9.27;;;1.90;;
23519;SDS011;11936;50.820;4.336;2023-06-26T08:09:13;7.32;;;2.30;;
23519;SDS011;11936;50.820;4.336;2023-06-26T08:11:39;6.97;;;2.20;;
23519;SDS011;11936;50.820;4.336;2023-06-26T08:14:05;7.82;;;2.25;;
23519;SDS011;11936;50.820;4.336;2023-06-26T08:16:31;6.53;;;2.13;;
23519;SDS011;11936;50.820;4.336;2023-06-26T08:18:56;6.40;;;2.20;;
23519;SDS011;11936;50.820;4.336;2023-06-26T08:21:22;4.07;;;2.08;;
23519;SDS011;11936;50.820;4.336;2023-06-26T08:23:47;8.18;;;2.08;;
23519;SDS011;11936;50.820;4.336;2023-06-26T08:26:13;6.30;;;2.28;;
23519;SDS011;11936;50.820;4.336;2023-06-26T08:28:39;7.50;;;2.60;;
23519;SDS011;11936;50.820;4.336;2023-06-26T08:31:04;9.80;;;2.72;;
23519;SDS011;11936;50.820;4.336;2023-06-26T08:33:30;11.27;;;2.80;;
23519;SDS011;11936;50.820;4.336;2023-06-26T08:35:58;7.00;;;1.85;;
23519;SDS011;11936;50.820;4.336;2023-06-26T08:38:24;6.97;;;2.33;;
23519;SDS011;11936;50.820;4.336;2023-06-26T08:40:49;6.95;;;2.17;;
23519;SDS011;11936;50.820;4.336;2023-06-26T08:43:15;8.15;;;2.15;;
23519;SDS011;11936;50.820;4.336;2023-06-26T08:45:41;6.53;;;2.00;;
23519;SDS011;11936;50.820;4.336;2023-06-26T08:48:07;4.55;;;1.80;;
23519;SDS011;11936;50.820;4.336;2023-06-26T08:50:34;6.38;;;2.17;;
23519;SDS011;11936;50.820;4.336;2023-06-26T08:55:44;8.55;;;1.95;;
23519;SDS011;11936;50.820;4.336;2023-06-26T08:58:13;7.63;;;2.15;;
23519;SDS011;11936;50.820;4.336;2023-06-26T09:00:39;4.57;;;1.75;;
23519;SDS011;11936;50.820;4.336;2023-06-26T09:03:05;8.95;;;2.08;;
23519;SDS011;11936;50.820;4.336;2023-06-26T09:05:31;12.77;;;2.20;;
23519;SDS011;11936;50.820;4.336;2023-06-26T09:07:57;5.13;;;2.00;;
23519;SDS011;11936;50.820;4.336;2023-06-26T09:10:23;3.47;;;1.58;;
23519;SDS011;11936;50.820;4.336;2023-06-26T09:12:49;9.10;;;1.70;;
23519;SDS011;11936;50.820;4.336;2023-06-26T09:15:15;11.40;;;2.15;;
23519;SDS011;11936;50.820;4.336;2023-06-26T09:17:44;11.10;;;2.47;;
23519;SDS011;11936;50.820;4.336;2023-06-26T09:20:13;10.38;;;2.50;;
23519;SDS011;11936;50.820;4.336;2023-06-26T09:22:40;12.70;;;2.40;;
23519;SDS011;11936;50.820;4.336;2023-06-26T09:25:07;4.97;;;2.35;;
23519;SDS011;11936;50.820;4.336;2023-06-26T09:27:36;6.05;;;2.03;;
23519;SDS011;11936;50.820;4.336;2023-06-26T09:30:02;11.85;;;2.30;;
23519;SDS011;11936;50.820;4.336;2023-06-26T09:32:29;5.53;;;2.63;;
23519;SDS011;11936;50.820;4.336;2023-06-26T09:34:54;5.15;;;1.58;;
23519;SDS011;11936;50.820;4.336;2023-06-26T09:37:25;14.55;;;2.92;;
23519;SDS011;11936;50.820;4.336;2023-06-26T09:39:51;10.35;;;2.58;;
23519;SDS011;11936;50.820;4.336;2023-06-26T09:42:17;9.88;;;1.80;;
23519;SDS011;11936;50.820;4.336;2023-06-26T09:44:45;13.47;;;2.10;;
23519;SDS011;11936;50.820;4.336;2023-06-26T09:47:11;6.10;;;2.08;;
23519;SDS011;11936;50.820;4.336;2023-06-26T09:49:40;5.20;;;1.90;;
23519;SDS011;11936;50.820;4.336;2023-06-26T09:52:08;6.68;;;1.85;;
23519;SDS011;11936;50.820;4.336;2023-06-26T09:54:34;11.02;;;2.13;;
23519;SDS011;11936;50.820;4.336;2023-06-26T09:57:09;7.32;;;2.05;;
23519;SDS011;11936;50.820;4.336;2023-06-26T09:59:36;9.93;;;1.85;;
23519;SDS011;11936;50.820;4.336;2023-06-26T10:02:02;6.97;;;2.20;;
23519;SDS011;11936;50.820;4.336;2023-06-26T10:04:28;7.72;;;2.28;;
23519;SDS011;11936;50.820;4.336;2023-06-26T10:06:57;7.35;;;1.98;;
23519;SDS011;11936;50.820;4.336;2023-06-26T10:09:25;7.60;;;1.67;;
23519;SDS011;11936;50.820;4.336;2023-06-26T10:12:10;8.40;;;1.80;;
23519;SDS011;11936;50.820;4.336;2023-06-26T10:14:42;13.77;;;1.90;;
23519;SDS011;11936;50.820;4.336;2023-06-26T10:17:11;7.55;;;2.72;;
23519;SDS011;11936;50.820;4.336;2023-06-26T10:19:43;8.10;;;2.40;;
23519;SDS011;11936;50.820;4.336;2023-06-26T10:22:13;3.33;;;1.58;;
23519;SDS011;11936;50.820;4.336;2023-06-26T10:24:41;6.22;;;2.28;;
23519;SDS011;11936;50.820;4.336;2023-06-26T10:27:10;8.35;;;1.98;;
23519;SDS011;11936;50.820;4.336;2023-06-26T10:29:41;4.32;;;1.70;;
23519;SDS011;11936;50.820;4.336;2023-06-26T10:32:12;7.20;;;1.98;;
23519;SDS011;11936;50.820;4.336;2023-06-26T10:34:39;6.65;;;2.10;;
23519;SDS011;11936;50.820;4.336;2023-06-26T10:37:04;7.82;;;2.03;;
23519;SDS011;11936;50.820;4.336;2023-06-26T10:39:49;5.55;;;2.25;;
23519;SDS011;11936;50.820;4.336;2023-06-26T10:42:16;6.63;;;1.98;;
23519;SDS011;11936;50.820;4.336;2023-06-26T10:44:43;4.97;;;2.30;;
23519;SDS011;11936;50.820;4.336;2023-06-26T10:47:28;5.43;;;2.28;;
23519;SDS011;11936;50.820;4.336;2023-06-26T10:55:32;5.85;;;1.77;;
23519;SDS011;11936;50.820;4.336;2023-06-26T10:57:58;5.97;;;1.80;;
23519;SDS011;11936;50.820;4.336;2023-06-26T11:00:24;5.63;;;2.10;;
23519;SDS011;11936;50.820;4.336;2023-06-26T11:02:50;4.32;;;1.65;;
23519;SDS011;11936;50.820;4.336;2023-06-26T11:05:28;4.32;;;1.90;;
23519;SDS011;11936;50.820;4.336;2023-06-26T11:08:10;5.55;;;2.08;;
23519;SDS011;11936;50.820;4.336;2023-06-26T11:10:51;6.45;;;2.47;;
23519;SDS011;11936;50.820;4.336;2023-06-26T11:13:20;4.40;;;1.73;;
23519;SDS011;11936;50.820;4.336;2023-06-26T11:15:46;5.75;;;2.05;;
23519;SDS011;11936;50.820;4.336;2023-06-26T11:18:14;5.28;;;1.90;;
23519;SDS011;11936;50.820;4.336;2023-06-26T11:20:40;3.92;;;1.67;;
23519;SDS011;11936;50.820;4.336;2023-06-26T11:23:06;8.15;;;1.73;;
23519;SDS011;11936;50.820;4.336;2023-06-26T11:25:37;3.33;;;1.58;;
23519;SDS011;11936;50.820;4.336;2023-06-26T11:28:03;6.22;;;1.92;;
23519;SDS011;11936;50.820;4.336;2023-06-26T11:30:30;5.53;;;1.73;;
23519;SDS011;11936;50.820;4.336;2023-06-26T11:33:06;5.45;;;1.90;;
23519;SDS011;11936;50.820;4.336;2023-06-26T11:35:33;4.68;;;2.10;;
23519;SDS011;11936;50.820;4.336;2023-06-26T11:38:00;4.63;;;1.77;;
23519;SDS011;11936;50.820;4.336;2023-06-26T11:40:30;5.15;;;1.90;;
23519;SDS011;11936;50.820;4.336;2023-06-26T11:43:00;5.85;;;1.67;;
23519;SDS011;11936;50.820;4.336;2023-06-26T11:45:30;5.90;;;1.73;;
23519;SDS011;11936;50.820;4.336;2023-06-26T11:47:57;4.30;;;1.70;;
23519;SDS011;11936;50.820;4.336;2023-06-26T11:50:23;7.28;;;2.15;;
23519;SDS011;11936;50.820;4.336;2023-06-26T11:52:53;4.20;;;1.40;;
23519;SDS011;11936;50.820;4.336;2023-06-26T11:55:20;7.47;;;1.90;;
23519;SDS011;11936;50.820;4.336;2023-06-26T11:57:50;5.22;;;1.85;;
23519;SDS011;11936;50.820;4.336;2023-06-26T12:00:18;7.03;;;2.25;;
23519;SDS011;11936;50.820;4.336;2023-06-26T12:02:44;10.10;;;3.15;;
23519;SDS011;11936;50.820;4.336;2023-06-26T12:05:14;7.72;;;2.08;;
23519;SDS011;11936;50.820;4.336;2023-06-26T12:07:45;6.15;;;2.17;;
23519;SDS011;11936;50.820;4.336;2023-06-26T12:10:12;3.88;;;1.50;;
23519;SDS011;11936;50.820;4.336;2023-06-26T12:12:39;8.23;;;2.15;;
23519;SDS011;11936;50.820;4.336;2023-06-26T12:15:09;3.03;;;1.63;;
23519;SDS011;11936;50.820;4.336;2023-06-26T12:17:40;5.00;;;1.58;;
23519;SDS011;11936;50.820;4.336;2023-06-26T12:20:16;4.15;;;1.75;;
23519;SDS011;11936;50.820;4.336;2023-06-26T12:22:46;3.67;;;1.60;;
23519;SDS011;11936;50.820;4.336;2023-06-26T12:25:16;10.98;;;1.73;;
23519;SDS011;11936;50.820;4.336;2023-06-26T12:27:47;5.15;;;1.98;;
23519;SDS011;11936;50.820;4.336;2023-06-26T12:30:13;5.68;;;2.10;;
23519;SDS011;11936;50.820;4.336;2023-06-26T12:32:38;6.85;;;1.52;;
23519;SDS011;11936;50.820;4.336;2023-06-26T12:35:04;6.72;;;1.70;;
23519;SDS011;11936;50.820;4.336;2023-06-26T12:37:35;7.20;;;1.88;;
23519;SDS011;11936;50.820;4.336;2023-06-26T12:40:03;4.95;;;1.55;;
23519;SDS011;11936;50.820;4.336;2023-06-26T12:42:32;8.48;;;1.83;;
23519;SDS011;11936;50.820;4.336;2023-06-26T12:44:58;7.75;;;2.22;;
23519;SDS011;11936;50.820;4.336;2023-06-26T12:47:28;3.63;;;1.60;;
23519;SDS011;11936;50.820;4.336;2023-06-26T12:49:57;6.28;;;1.73;;
23519;SDS011;11936;50.820;4.336;2023-06-26T12:52:22;6.45;;;1.58;;
23519;SDS011;11936;50.820;4.336;2023-06-26T12:54:52;3.33;;;1.90;;
23519;SDS011;11936;50.820;4.336;2023-06-26T12:57:19;6.63;;;2.40;;
23519;SDS011;11936;50.820;4.336;2023-06-26T12:59:45;3.75;;;1.45;;
23519;SDS011;11936;50.820;4.336;2023-06-26T13:02:10;2.95;;;1.92;;
23519;SDS011;11936;50.820;4.336;2023-06-26T13:04:36;7.30;;;1.80;;
23519;SDS011;11936;50.820;4.336;2023-06-26T13:07:05;2.80;;;1.65;;
23519;SDS011;11936;50.820;4.336;2023-06-26T13:09:33;7.18;;;1.95;;
23519;SDS011;11936;50.820;4.336;2023-06-26T13:12:00;5.38;;;1.70;;
23519;SDS011;11936;50.820;4.336;2023-06-26T13:14:27;5.72;;;1.60;;
23519;SDS011;11936;50.820;4.336;2023-06-26T13:16:52;6.25;;;1.88;;
23519;SDS011;11936;50.820;4.336;2023-06-26T13:19:18;4.03;;;1.55;;
23519;SDS011;11936;50.820;4.336;2023-06-26T13:21:43;5.65;;;2.20;;
23519;SDS011;11936;50.820;4.336;2023-06-26T13:24:09;3.65;;;2.03;;
23519;SDS011;11936;50.820;4.336;2023-06-26T13:26:34;4.05;;;1.98;;
23519;SDS011;11936;50.820;4.336;2023-06-26T13:29:00;4.72;;;1.80;;
23519;SDS011;11936;50.820;4.336;2023-06-26T13:31:26;5.20;;;2.00;;
23519;SDS011;11936;50.820;4.336;2023-06-26T13:33:52;8.00;;;1.83;;
23519;SDS011;11936;50.820;4.336;2023-06-26T13:36:18;5.53;;;1.70;;
23519;SDS011;11936;50.820;4.336;2023-06-26T13:38:44;3.38;;;2.00;;
23519;SDS011;11936;50.820;4.336;2023-06-26T13:41:09;5.40;;;1.98;;
23519;SDS011;11936;50.820;4.336;2023-06-26T13:43:35;5.43;;;2.00;;
23519;SDS011;11936;50.820;4.336;2023-06-26T13:46:01;5.03;;;1.80;;
23519;SDS011;11936;50.820;4.336;2023-06-26T13:48:28;8.48;;;1.95;;
23519;SDS011;11936;50.820;4.336;2023-06-26T13:50:54;6.10;;;1.90;;
23519;SDS011;11936;50.820;4.336;2023-06-26T13:53:20;7.93;;;1.77;;
23519;SDS011;11936;50.820;4.336;2023-06-26T13:55:45;5.30;;;1.85;;
23519;SDS011;11936;50.820;4.336;2023-06-26T13:58:11;6.30;;;1.98;;
23519;SDS011;11936;50.820;4.336;2023-06-26T14:00:38;7.80;;;2.05;;
23519;SDS011;11936;50.820;4.336;2023-06-26T14:03:04;7.53;;;1.98;;
23519;SDS011;11936;50.820;4.336;2023-06-26T14:05:32;3.13;;;1.80;;
23519;SDS011;11936;50.820;4.336;2023-06-26T14:07:58;4.07;;;2.22;;
23519;SDS011;11936;50.820;4.336;2023-06-26T14:10:23;6.65;;;2.05;;
23519;SDS011;11936;50.820;4.336;2023-06-26T14:12:49;8.23;;;1.65;;
23519;SDS011;11936;50.820;4.336;2023-06-26T14:15:15;4.75;;;1.55;;
23519;SDS011;11936;50.820;4.336;2023-06-26T14:17:42;3.58;;;1.48;;
23519;SDS011;11936;50.820;4.336;2023-06-26T14:20:08;3.95;;;1.67;;
23519;SDS011;11936;50.820;4.336;2023-06-26T14:22:37;4.00;;;1.30;;
23519;SDS011;11936;50.820;4.336;2023-06-26T14:25:06;7.13;;;1.67;;
23519;SDS011;11936;50.820;4.336;2023-06-26T14:27:36;5.45;;;1.52;;
23519;SDS011;11936;50.820;4.336;2023-06-26T14:30:02;4.13;;;1.65;;
23519;SDS011;11936;50.820;4.336;2023-06-26T14:32:29;5.53;;;1.80;;
23519;SDS011;11936;50.820;4.336;2023-06-26T14:34:55;11.18;;;1.80;;
23519;SDS011;11936;50.820;4.336;2023-06-26T14:37:21;3.33;;;1.60;;
23519;SDS011;11936;50.820;4.336;2023-06-26T14:39:47;4.57;;;1.67;;
23519;SDS011;11936;50.820;4.336;2023-06-26T14:42:13;6.93;;;1.60;;
23519;SDS011;11936;50.820;4.336;2023-06-26T14:44:38;3.88;;;1.42;;
23519;SDS011;11936;50.820;4.336;2023-06-26T14:47:04;6.07;;;1.80;;
23519;SDS011;11936;50.820;4.336;2023-06-26T14:49:30;4.68;;;2.17;;
23519;SDS011;11936;50.820;4.336;2023-06-26T14:51:56;2.92;;;1.77;;
23519;SDS011;11936;50.820;4.336;2023-06-26T14:54:21;3.10;;;1.73;;
23519;SDS011;11936;50.820;4.336;2023-06-26T14:56:47;4.22;;;1.60;;